createdAt,value
2019-05-01T00:01:03.647Z,8.20
2019-05-01T00:03:50.437Z,8.10
2019-05-01T00:06:23.875Z,8.10
2019-05-01T00:08:52.987Z,8.10
2019-05-01T00:11:22.255Z,8.10
2019-05-01T00:13:51.446Z,8.00
2019-05-01T00:16:20.619Z,8.00
2019-05-01T00:18:49.806Z,8.00
2019-05-01T00:21:18.902Z,8.00
2019-05-01T00:23:48.004Z,8.00
2019-05-01T00:26:17.086Z,7.90
2019-05-01T00:28:46.175Z,8.00
2019-05-01T00:31:15.471Z,7.90
2019-05-01T00:33:44.565Z,8.00
2019-05-01T00:36:13.675Z,8.00
2019-05-01T00:38:42.763Z,7.90
2019-05-01T00:41:11.859Z,7.90
2019-05-01T00:43:40.933Z,7.90
2019-05-01T00:46:10.025Z,7.90
2019-05-01T00:48:39.119Z,7.90
2019-05-01T00:51:08.187Z,7.90
2019-05-01T00:53:37.347Z,7.80
2019-05-01T00:56:17.685Z,7.80
2019-05-01T00:59:04.529Z,7.80
2019-05-01T01:02:07.991Z,7.80
2019-05-01T01:04:37.276Z,7.80
2019-05-01T01:07:06.349Z,7.80
2019-05-01T01:09:35.417Z,7.80
2019-05-01T01:12:04.507Z,7.80
2019-05-01T01:14:33.601Z,7.70
2019-05-01T01:17:02.670Z,7.70
2019-05-01T01:19:31.747Z,7.70
2019-05-01T01:22:00.850Z,7.70
2019-05-01T01:24:29.922Z,7.70
2019-05-01T01:26:59.205Z,7.60
2019-05-01T01:29:28.340Z,7.60
2019-05-01T01:31:57.426Z,7.60
2019-05-01T01:34:26.503Z,7.60
2019-05-01T01:36:55.612Z,7.60
2019-05-01T01:39:24.979Z,7.60
2019-05-01T01:41:54.469Z,7.60
2019-05-01T01:44:58.288Z,7.60
2019-05-01T01:47:27.539Z,7.60
2019-05-01T01:49:57.421Z,7.50
2019-05-01T01:52:26.532Z,7.50
2019-05-01T01:54:56.715Z,7.50
2019-05-01T01:57:26.027Z,7.50
2019-05-01T01:59:55.412Z,7.40
2019-05-01T02:02:41.570Z,7.40
2019-05-01T02:05:16.655Z,7.40
2019-05-01T02:07:45.816Z,7.40
2019-05-01T02:10:15.441Z,7.40
2019-05-01T02:12:44.989Z,7.30
2019-05-01T02:15:14.474Z,7.30
2019-05-01T02:17:43.564Z,7.30
2019-05-01T02:20:12.859Z,7.30
2019-05-01T02:22:42.143Z,7.30
2019-05-01T02:25:12.496Z,7.30
2019-05-01T02:28:01.028Z,7.30
2019-05-01T02:30:30.313Z,7.20
2019-05-01T02:33:00.083Z,7.20
2019-05-01T02:35:30.488Z,7.20
2019-05-01T02:38:01.732Z,7.10
2019-05-01T02:40:45.090Z,7.10
2019-05-01T02:43:17.150Z,7.10
2019-05-01T02:45:48.004Z,7.00
2019-05-01T02:48:20.188Z,7.00
2019-05-01T02:50:52.156Z,7.00
2019-05-01T02:53:24.457Z,6.90
2019-05-01T02:56:13.333Z,6.90
2019-05-01T02:58:44.784Z,6.90
2019-05-01T03:01:14.483Z,6.80
2019-05-01T03:03:43.732Z,6.80
2019-05-01T03:06:12.831Z,6.80
2019-05-01T03:08:42.010Z,6.80
2019-05-01T03:11:11.205Z,6.70
2019-05-01T03:13:42.574Z,6.70
2019-05-01T03:16:11.750Z,6.70
2019-05-01T03:18:45.766Z,6.60
2019-05-01T03:21:29.856Z,6.60
2019-05-01T03:24:05.738Z,6.60
2019-05-01T03:26:35.649Z,6.60
2019-05-01T03:29:05.667Z,6.60
2019-05-01T03:31:34.865Z,6.50
2019-05-01T03:34:04.056Z,6.50
2019-05-01T03:36:33.335Z,6.50
2019-05-01T03:39:02.503Z,6.40
2019-05-01T03:41:31.666Z,6.40
2019-05-01T03:44:00.749Z,6.40
2019-05-01T03:46:29.830Z,6.30
2019-05-01T03:48:59.037Z,6.40
2019-05-01T03:51:28.131Z,6.30
2019-05-01T03:53:57.826Z,6.30
2019-05-01T03:56:27.804Z,6.30
2019-05-01T03:58:56.981Z,6.30
2019-05-01T04:01:33.283Z,6.20
2019-05-01T04:04:06.032Z,6.20
2019-05-01T04:06:36.233Z,6.20
2019-05-01T04:09:07.055Z,6.20
2019-05-01T04:11:36.899Z,6.20
2019-05-01T04:14:06.187Z,6.30
2019-05-01T04:16:35.662Z,6.30
2019-05-01T04:19:06.697Z,6.30
2019-05-01T04:21:43.246Z,6.30
2019-05-01T04:24:12.560Z,6.30
2019-05-01T04:26:42.014Z,6.30
2019-05-01T04:29:30.467Z,6.30
2019-05-01T04:32:06.314Z,6.30
2019-05-01T04:35:12.893Z,6.30
2019-05-01T04:37:42.241Z,6.30
2019-05-01T04:40:11.321Z,6.40
2019-05-01T04:42:40.708Z,6.40
2019-05-01T04:45:09.977Z,6.40
2019-05-01T04:47:39.140Z,6.40
2019-05-01T04:50:08.329Z,6.50
2019-05-01T04:52:37.522Z,6.50
2019-05-01T04:55:07.282Z,6.50
2019-05-01T04:57:38.176Z,6.60
2019-05-01T05:00:07.706Z,6.60
2019-05-01T05:02:44.897Z,6.70
2019-05-01T05:05:14.550Z,6.70
2019-05-01T05:07:43.674Z,6.80
2019-05-01T05:10:12.781Z,6.90
2019-05-01T05:12:47.279Z,7.00
2019-05-01T05:15:38.650Z,7.10
2019-05-01T05:18:07.818Z,7.10
2019-05-01T05:20:36.889Z,7.20
2019-05-01T05:23:05.981Z,7.30
2019-05-01T05:25:35.383Z,7.30
2019-05-01T05:28:04.835Z,7.30
2019-05-01T05:30:35.931Z,7.30
2019-05-01T05:33:17.739Z,7.30
2019-05-01T05:35:40.665Z,7.40
2019-05-01T05:38:33.660Z,7.40
2019-05-01T05:41:03.956Z,7.50
2019-05-01T05:43:33.946Z,7.60
2019-05-01T05:46:03.942Z,7.60
2019-05-01T05:48:33.019Z,7.70
2019-05-01T05:51:25.415Z,7.80
2019-05-01T05:53:57.712Z,7.90
2019-05-01T05:56:34.021Z,8.10
2019-05-01T05:59:10.700Z,8.20
2019-05-01T06:01:56.289Z,8.30
2019-05-01T06:04:46.734Z,8.40
2019-05-01T06:07:27.949Z,8.50
2019-05-01T06:10:18.586Z,8.70
2019-05-01T06:13:09.066Z,8.80
2019-05-01T06:15:50.629Z,8.90
2019-05-01T06:18:41.615Z,9.00
2019-05-01T06:21:20.178Z,9.10
2019-05-01T06:24:06.116Z,9.30
2019-05-01T06:26:37.218Z,9.50
2019-05-01T06:29:05.100Z,9.70
2019-05-01T06:31:35.295Z,9.90
2019-05-01T06:34:04.588Z,10.00
2019-05-01T06:36:34.685Z,10.10
2019-05-01T06:39:06.942Z,10.10
2019-05-01T06:41:44.317Z,10.20
2019-05-01T06:44:20.377Z,10.30
2019-05-01T06:47:12.169Z,10.40
2019-05-01T06:50:05.784Z,10.50
2019-05-01T06:52:34.134Z,10.70
2019-05-01T06:55:03.341Z,10.80
2019-05-01T06:57:33.105Z,10.90
2019-05-01T07:00:07.800Z,11.00
2019-05-01T07:02:35.338Z,11.10
2019-05-01T07:05:09.057Z,11.30
2019-05-01T07:07:37.019Z,11.40
2019-05-01T07:10:06.221Z,11.50
2019-05-01T07:12:36.125Z,11.70
2019-05-01T07:15:05.987Z,11.80
2019-05-01T07:17:35.982Z,11.90
2019-05-01T07:20:31.295Z,12.10
2019-05-01T07:23:00.509Z,12.20
2019-05-01T07:25:29.620Z,12.30
2019-05-01T07:27:59.744Z,12.40
2019-05-01T07:30:34.830Z,12.60
2019-05-01T07:33:03.965Z,12.70
2019-05-01T07:35:36.851Z,12.80
2019-05-01T07:38:04.254Z,12.90
2019-05-01T07:40:33.465Z,13.00
2019-05-01T07:43:23.903Z,13.10
2019-05-01T07:46:02.387Z,13.10
2019-05-01T07:48:36.153Z,13.20
2019-05-01T07:51:08.743Z,13.30
2019-05-01T07:53:38.750Z,13.40
2019-05-01T07:56:08.888Z,13.50
2019-05-01T07:58:39.117Z,13.50
2019-05-01T08:01:18.471Z,13.60
2019-05-01T08:03:47.962Z,13.70
2019-05-01T08:06:21.831Z,13.80
2019-05-01T08:08:48.261Z,13.80
2019-05-01T08:11:17.349Z,13.90
2019-05-01T08:13:46.453Z,14.00
2019-05-01T08:16:15.556Z,14.00
2019-05-01T08:18:49.860Z,14.10
2019-05-01T08:21:27.761Z,14.10
2019-05-01T08:23:56.911Z,14.20
2019-05-01T08:26:26.015Z,14.20
2019-05-01T08:29:22.193Z,14.30
2019-05-01T08:32:05.685Z,14.40
2019-05-01T08:34:35.184Z,14.50
2019-05-01T08:37:06.463Z,14.60
2019-05-01T08:39:35.105Z,14.70
2019-05-01T08:42:06.989Z,14.80
2019-05-01T08:44:42.486Z,14.90
2019-05-01T08:47:20.796Z,15.00
2019-05-01T08:50:14.492Z,15.00
2019-05-01T08:52:47.464Z,15.10
2019-05-01T08:55:14.384Z,15.10
2019-05-01T08:57:43.539Z,15.20
2019-05-01T09:00:12.934Z,15.20
2019-05-01T09:02:43.421Z,15.30
2019-05-01T09:05:27.881Z,15.40
2019-05-01T09:07:43.652Z,15.40
2019-05-01T09:10:16.883Z,15.50
2019-05-01T09:12:46.915Z,15.60
2019-05-01T09:15:14.769Z,15.70
2019-05-01T09:17:43.956Z,15.90
2019-05-01T09:20:13.063Z,16.00
2019-05-01T09:22:42.229Z,16.00
2019-05-01T09:25:12.966Z,16.00
2019-05-01T09:28:06.952Z,16.10
2019-05-01T09:30:40.120Z,16.20
2019-05-01T09:33:09.497Z,16.20
2019-05-01T09:35:40.429Z,16.30
2019-05-01T09:38:09.545Z,16.40
2019-05-01T09:40:38.707Z,16.50
2019-05-01T09:43:07.903Z,16.60
2019-05-01T09:45:37.105Z,16.70
2019-05-01T09:48:06.847Z,16.80
2019-05-01T09:50:38.522Z,16.80
2019-05-01T09:53:24.281Z,16.80
2019-05-01T09:55:56.685Z,16.70
2019-05-01T09:58:25.828Z,16.60
2019-05-01T10:00:57.626Z,16.70
2019-05-01T10:03:26.729Z,16.70
2019-05-01T10:05:55.937Z,16.60
2019-05-01T10:08:25.029Z,16.50
2019-05-01T10:10:54.208Z,16.40
2019-05-01T10:13:24.206Z,16.40
2019-05-01T10:15:53.349Z,16.40
2019-05-01T10:18:22.485Z,16.50
2019-05-01T10:20:51.561Z,16.60
2019-05-01T10:23:20.672Z,16.70
2019-05-01T10:25:53.118Z,16.90
2019-05-01T10:28:37.373Z,17.00
2019-05-01T10:31:31.804Z,17.10
2019-05-01T10:34:09.155Z,17.20
2019-05-01T10:36:43.214Z,17.40
2019-05-01T10:39:20.811Z,17.30
2019-05-01T10:41:50.236Z,17.20
2019-05-01T10:44:19.327Z,17.10
2019-05-01T10:46:48.504Z,17.10
2019-05-01T10:49:17.586Z,17.10
2019-05-01T10:51:46.704Z,17.40
2019-05-01T10:54:15.824Z,17.60
2019-05-01T10:56:45.022Z,17.70
2019-05-01T10:59:14.104Z,17.70
2019-05-01T11:01:47.804Z,17.70
2019-05-01T11:04:16.902Z,17.80
2019-05-01T11:06:46.030Z,17.80
2019-05-01T11:09:15.158Z,17.80
2019-05-01T11:11:44.264Z,17.90
2019-05-01T11:14:13.398Z,17.90
2019-05-01T11:16:42.490Z,17.80
2019-05-01T11:19:11.614Z,17.80
2019-05-01T11:21:40.712Z,17.80
2019-05-01T11:24:09.792Z,17.80
2019-05-01T11:26:38.910Z,17.80
2019-05-01T11:29:08.022Z,17.70
2019-05-01T11:31:45.298Z,17.70
2019-05-01T11:34:32.110Z,17.70
2019-05-01T11:37:23.381Z,17.70
2019-05-01T11:39:56.970Z,17.80
2019-05-01T11:42:26.085Z,17.90
2019-05-01T11:44:55.182Z,18.00
2019-05-01T11:47:24.388Z,18.10
2019-05-01T11:49:54.661Z,18.10
2019-05-01T11:52:23.754Z,18.00
2019-05-01T11:54:52.923Z,17.90
2019-05-01T11:57:22.064Z,18.00
2019-05-01T11:59:51.159Z,18.10
2019-05-01T12:02:20.341Z,18.20
2019-05-01T12:04:49.456Z,18.30
2019-05-01T12:07:18.595Z,18.20
2019-05-01T12:09:47.704Z,18.30
2019-05-01T12:12:18.482Z,18.40
2019-05-01T12:14:47.610Z,18.50
2019-05-01T12:17:22.080Z,18.60
2019-05-01T12:19:51.195Z,18.80
2019-05-01T12:22:20.296Z,18.80
2019-05-01T12:24:49.472Z,18.80
2019-05-01T12:27:18.596Z,18.70
2019-05-01T12:29:47.872Z,18.70
2019-05-01T12:32:17.010Z,18.60
2019-05-01T12:34:46.143Z,18.60
2019-05-01T12:37:18.431Z,18.60
2019-05-01T12:39:47.581Z,18.60
2019-05-01T12:42:17.955Z,18.70
2019-05-01T12:45:07.074Z,18.70
2019-05-01T12:47:51.073Z,18.70
2019-05-01T12:50:20.289Z,18.90
2019-05-01T12:53:20.517Z,19.00
2019-05-01T12:56:14.458Z,19.10
2019-05-01T12:58:44.841Z,19.40
2019-05-01T13:01:14.072Z,19.60
2019-05-01T13:03:43.330Z,19.80
2019-05-01T13:06:14.403Z,20.00
2019-05-01T13:08:43.301Z,20.10
2019-05-01T13:11:12.491Z,20.10
2019-05-01T13:13:41.600Z,20.20
2019-05-01T13:16:10.700Z,20.30
2019-05-01T13:18:39.789Z,20.40
2019-05-01T13:21:08.909Z,20.30
2019-05-01T13:23:38.081Z,20.20
2019-05-01T13:26:17.534Z,20.20
2019-05-01T13:28:57.643Z,20.30
2019-05-01T13:31:41.179Z,20.40
2019-05-01T13:34:10.535Z,20.50
2019-05-01T13:36:39.645Z,20.50
2019-05-01T13:39:11.606Z,20.60
2019-05-01T13:41:40.697Z,20.60
2019-05-01T13:44:09.865Z,20.50
2019-05-01T13:46:38.947Z,20.50
2019-05-01T13:49:08.011Z,20.60
2019-05-01T13:51:37.100Z,20.70
2019-05-01T13:54:07.482Z,20.70
2019-05-01T13:56:36.657Z,20.60
2019-05-01T13:59:07.480Z,20.50
2019-05-01T14:01:36.625Z,20.40
2019-05-01T14:04:05.778Z,20.40
2019-05-01T14:06:34.909Z,20.50
2019-05-01T14:09:06.182Z,20.60
2019-05-01T14:11:35.282Z,20.60
2019-05-01T14:14:04.375Z,20.70
2019-05-01T14:16:33.510Z,20.60
2019-05-01T14:19:02.635Z,20.50
2019-05-01T14:21:39.635Z,20.40
2019-05-01T14:24:31.304Z,20.40
2019-05-01T14:27:00.412Z,20.40
2019-05-01T14:29:29.482Z,20.40
2019-05-01T14:31:58.599Z,20.40
2019-05-01T14:34:27.713Z,20.50
2019-05-01T14:36:56.815Z,20.70
2019-05-01T14:39:25.947Z,20.70
2019-05-01T14:41:55.039Z,20.70
2019-05-01T14:44:35.731Z,20.80
2019-05-01T14:46:55.069Z,20.90
2019-05-01T14:49:24.186Z,21.00
2019-05-01T14:51:53.258Z,21.00
2019-05-01T14:54:22.429Z,20.90
2019-05-01T14:56:51.523Z,20.80
2019-05-01T14:59:20.582Z,20.90
2019-05-01T15:01:49.665Z,20.90
2019-05-01T15:04:18.751Z,20.90
2019-05-01T15:06:47.875Z,20.80
2019-05-01T15:09:16.968Z,20.70
2019-05-01T15:11:46.348Z,20.70
2019-05-01T15:14:24.826Z,20.60
2019-05-01T15:16:58.365Z,20.40
2019-05-01T15:19:29.473Z,20.30
2019-05-01T15:21:58.576Z,20.20
2019-05-01T15:24:27.670Z,20.10
2019-05-01T15:26:56.784Z,20.00
2019-05-01T15:29:25.870Z,20.00
2019-05-01T15:31:54.979Z,20.00
2019-05-01T15:34:24.053Z,20.10
2019-05-01T15:36:53.167Z,20.00
2019-05-01T15:39:47.337Z,19.80
2019-05-01T15:42:31.443Z,19.60
2019-05-01T15:45:00.535Z,19.40
2019-05-01T15:47:29.667Z,19.20
2019-05-01T15:49:58.769Z,19.00
2019-05-01T15:52:27.958Z,18.80
2019-05-01T15:54:57.066Z,18.70
2019-05-01T15:57:26.191Z,18.60
2019-05-01T15:59:55.366Z,18.50
2019-05-01T16:02:24.490Z,18.40
2019-05-01T16:04:53.632Z,18.30
2019-05-01T16:07:22.755Z,18.30
2019-05-01T16:09:51.919Z,18.20
2019-05-01T16:12:32.494Z,18.20
2019-05-01T16:15:01.568Z,18.20
2019-05-01T16:17:30.771Z,18.20
2019-05-01T16:19:59.849Z,18.10
2019-05-01T16:22:29.038Z,18.20
2019-05-01T16:24:58.045Z,18.40
2019-05-01T16:27:27.157Z,18.50
2019-05-01T16:29:56.239Z,18.50
2019-05-01T16:32:25.489Z,18.60
2019-05-01T16:34:54.631Z,18.70
2019-05-01T16:37:23.837Z,18.80
2019-05-01T16:39:59.231Z,18.90
2019-05-01T16:42:34.556Z,18.80
2019-05-01T16:45:04.166Z,18.80
2019-05-01T16:47:33.243Z,18.60
2019-05-01T16:50:02.328Z,18.50
2019-05-01T16:52:34.038Z,18.40
2019-05-01T16:55:03.371Z,18.30
2019-05-01T16:57:32.524Z,18.30
2019-05-01T17:00:01.704Z,18.50
2019-05-01T17:02:53.010Z,18.90
2019-05-01T17:05:40.129Z,19.40
2019-05-01T17:08:43.594Z,19.80
2019-05-01T17:11:12.795Z,20.20
2019-05-01T17:13:41.877Z,20.60
2019-05-01T17:16:11.050Z,20.90
2019-05-01T17:18:40.164Z,21.10
2019-05-01T17:21:09.327Z,21.40
2019-05-01T17:23:38.482Z,21.60
2019-05-01T17:26:07.599Z,21.70
2019-05-01T17:28:36.721Z,21.80
2019-05-01T17:31:05.933Z,21.90
2019-05-01T17:33:35.138Z,22.00
2019-05-01T17:36:04.262Z,22.10
2019-05-01T17:38:33.382Z,22.30
2019-05-01T17:41:02.554Z,22.40
2019-05-01T17:43:31.635Z,22.30
2019-05-01T17:46:00.721Z,22.20
2019-05-01T17:48:33.757Z,22.10
2019-05-01T17:51:01.968Z,21.80
2019-05-01T17:53:31.183Z,21.60
2019-05-01T17:56:00.298Z,21.30
2019-05-01T17:58:29.390Z,21.10
2019-05-01T18:01:27.969Z,20.80
2019-05-01T18:04:16.247Z,20.60
2019-05-01T18:06:48.051Z,20.40
2019-05-01T18:09:17.858Z,20.10
2019-05-01T18:11:47.261Z,19.90
2019-05-01T18:14:17.806Z,19.70
2019-05-01T18:16:46.898Z,19.50
2019-05-01T18:19:16.246Z,19.30
2019-05-01T18:21:51.761Z,19.10
2019-05-01T18:24:53.827Z,18.90
2019-05-01T18:27:54.124Z,18.70
2019-05-01T18:30:21.911Z,18.60
2019-05-01T18:32:52.478Z,18.30
2019-05-01T18:35:21.937Z,18.10
2019-05-01T18:38:24.870Z,17.90
2019-05-01T18:41:34.262Z,17.80
2019-05-01T18:44:05.420Z,17.60
2019-05-01T18:46:37.896Z,17.30
2019-05-01T18:49:07.592Z,17.00
2019-05-01T18:51:40.721Z,16.80
2019-05-01T18:54:12.001Z,16.70
2019-05-01T18:56:43.350Z,16.50
2019-05-01T18:59:12.950Z,16.30
2019-05-01T19:01:48.578Z,16.10
2019-05-01T19:04:18.520Z,15.90
2019-05-01T19:06:49.976Z,15.80
2019-05-01T19:09:29.954Z,15.60
2019-05-01T19:11:53.646Z,15.50
2019-05-01T19:14:28.970Z,15.40
2019-05-01T19:17:02.690Z,15.30
2019-05-01T19:19:35.542Z,15.10
2019-05-01T19:22:06.507Z,15.00
2019-05-01T19:24:38.133Z,15.00
2019-05-01T19:27:06.691Z,14.90
2019-05-01T19:29:35.786Z,14.70
2019-05-01T19:32:05.711Z,14.60
2019-05-01T19:34:34.831Z,14.50
2019-05-01T19:37:04.013Z,14.40
2019-05-01T19:39:43.384Z,14.30
2019-05-01T19:42:04.248Z,14.20
2019-05-01T19:44:33.377Z,14.10
2019-05-01T19:47:02.474Z,14.00
2019-05-01T19:49:31.578Z,13.90
2019-05-01T19:52:01.968Z,13.80
2019-05-01T19:54:31.351Z,13.80
2019-05-01T19:57:00.499Z,13.80
2019-05-01T19:59:29.695Z,13.90
2019-05-01T20:01:58.842Z,13.90
2019-05-01T20:04:28.065Z,13.80
2019-05-01T20:06:57.301Z,13.70
2019-05-01T20:09:26.622Z,13.60
2019-05-01T20:11:55.768Z,13.50
2019-05-01T20:14:27.039Z,13.40
2019-05-01T20:16:56.328Z,13.30
2019-05-01T20:19:25.490Z,13.30
2019-05-01T20:21:54.776Z,13.20
2019-05-01T20:24:24.052Z,13.10
2019-05-01T20:26:53.454Z,13.10
2019-05-01T20:29:22.646Z,13.00
2019-05-01T20:31:52.208Z,13.00
2019-05-01T20:34:21.444Z,12.90
2019-05-01T20:36:50.602Z,12.90
2019-05-01T20:39:19.806Z,12.80
2019-05-01T20:41:49.042Z,12.80
2019-05-01T20:44:23.432Z,12.70
2019-05-01T20:46:49.392Z,12.60
2019-05-01T20:49:18.751Z,12.50
2019-05-01T20:51:47.912Z,12.40
2019-05-01T20:54:17.208Z,12.40
2019-05-01T20:56:52.216Z,12.30
2019-05-01T20:59:21.503Z,12.20
2019-05-01T21:01:50.793Z,12.10
2019-05-01T21:04:48.103Z,12.10
2019-05-01T21:07:30.226Z,12.10
2019-05-01T21:10:00.541Z,12.00
2019-05-01T21:12:29.979Z,12.00
2019-05-01T21:14:59.249Z,11.90
2019-05-01T21:17:28.440Z,11.90
2019-05-01T21:19:57.643Z,11.80
2019-05-01T21:22:26.940Z,11.80
2019-05-01T21:24:56.146Z,11.70
2019-05-01T21:27:25.440Z,11.70
2019-05-01T21:29:54.567Z,11.60
2019-05-01T21:32:27.378Z,11.60
2019-05-01T21:34:54.666Z,11.50
2019-05-01T21:37:23.768Z,11.50
2019-05-01T21:39:53.762Z,11.40
2019-05-01T21:42:24.550Z,11.30
2019-05-01T21:44:53.890Z,11.30
2019-05-01T21:47:23.692Z,11.20
2019-05-01T21:49:53.133Z,11.20
2019-05-01T21:52:26.325Z,11.20
2019-05-01T21:54:55.204Z,11.20
2019-05-01T21:57:24.561Z,11.10
2019-05-01T21:59:55.318Z,11.10
2019-05-01T22:02:24.622Z,11.00
2019-05-01T22:04:53.775Z,11.00
2019-05-01T22:07:23.884Z,11.00
2019-05-01T22:09:53.718Z,11.00
2019-05-01T22:12:22.867Z,11.00
2019-05-01T22:14:58.783Z,10.90
2019-05-01T22:17:49.687Z,11.00
2019-05-01T22:20:23.554Z,10.90
2019-05-01T22:22:55.988Z,10.90
2019-05-01T22:25:32.249Z,10.80
2019-05-01T22:28:07.908Z,10.70
2019-05-01T22:30:42.332Z,10.70
2019-05-01T22:33:12.446Z,10.60
2019-05-01T22:35:44.933Z,10.60
2019-05-01T22:38:14.028Z,10.60
2019-05-01T22:41:05.477Z,10.50
2019-05-01T22:43:25.006Z,10.60
2019-05-01T22:45:56.396Z,10.50
2019-05-01T22:48:25.530Z,10.50
2019-05-01T22:50:57.776Z,10.40
2019-05-01T22:53:26.866Z,10.40
2019-05-01T22:55:57.390Z,10.40
2019-05-01T22:58:26.787Z,10.40
2019-05-01T23:00:57.216Z,10.40
2019-05-01T23:03:40.805Z,10.40
2019-05-01T23:06:07.699Z,10.30
2019-05-01T23:08:36.998Z,10.30
2019-05-01T23:11:19.183Z,10.30
2019-05-01T23:13:37.314Z,10.30
2019-05-01T23:16:07.162Z,10.20
2019-05-01T23:18:36.239Z,10.10
2019-05-01T23:21:05.394Z,10.10
2019-05-01T23:23:34.501Z,10.10
2019-05-01T23:26:03.600Z,10.10
2019-05-01T23:28:34.909Z,10.10
2019-05-01T23:31:03.579Z,10.10
2019-05-01T23:33:32.680Z,10.20
2019-05-01T23:36:01.834Z,10.20
2019-05-01T23:38:31.039Z,10.10
2019-05-01T23:41:00.186Z,10.10
2019-05-01T23:43:29.355Z,10.10
2019-05-01T23:45:58.446Z,10.10
2019-05-01T23:48:27.529Z,10.10
2019-05-01T23:50:56.651Z,10.00
2019-05-01T23:53:25.779Z,10.00
2019-05-01T23:55:59.905Z,10.00
2019-05-01T23:58:25.681Z,10.00
